Inserite qui i vostri METAR

Area dedicata alla discussioni sulle procedure di navigazione e sulla meteorologia aeronautica

Moderatore: Staff md80.it

Rispondi
Avatar utente
AirGek
FL 500
FL 500
Messaggi: 12173
Iscritto il: 7 dicembre 2008, 12:02
Località: 12 o'clock opposite direction

Re: Inserite qui i vostri METAR

Messaggio da AirGek » 21 dicembre 2009, 9:38

LSZH 210650Z 13006KT 100V160 3500 -SN FEW006 SCT010 BKN015 00/M00 Q1005 R88/5502// TEMPO 3000

:?: :?: :?:
Football, basketball, baseball, tennis, golf? No thanks, I fly. Why? Because all that stuff requires one ball only!

Avatar utente
SIPRO1A
FL 150
FL 150
Messaggi: 1579
Iscritto il: 9 luglio 2009, 15:36
Località: Reggio Calabria City

Re: Inserite qui i vostri METAR

Messaggio da SIPRO1A » 21 dicembre 2009, 10:07

Snowtam - 88 = tutte le piste 5 = neve bagnata 5 = copertura della pista dal 26 al 50% 02 = spessore in mm // = coeff. di frenata non misurabile. Spero sia giusto! :)
кαмιℓ

Fly the Flag!

Immagine

Avatar utente
Fabri88
FL 400
FL 400
Messaggi: 4233
Iscritto il: 17 novembre 2007, 14:05
Località: Busto Arsizio (Büsti Grandi) - 4,69 nm HDG 84 from MXP

Re: Inserite qui i vostri METAR

Messaggio da Fabri88 » 21 dicembre 2009, 19:03

EFRO 211750Z 07015KT 2500 -SN BR BKN007 BKN016 M10/M11 Q1000 03790133

:?: :?: :?:
Immagine
ImmagineImmagine

Avatar utente
AirGek
FL 500
FL 500
Messaggi: 12173
Iscritto il: 7 dicembre 2008, 12:02
Località: 12 o'clock opposite direction

Re: Inserite qui i vostri METAR

Messaggio da AirGek » 21 dicembre 2009, 19:11

Fabri88 ha scritto:EFRO 211750Z 07015KT 2500 -SN BR BKN007 BKN016 M10/M11 Q1000 03790133

:?: :?: :?:
Scendi giù fino a trovare la tabella dei SNOWTAM

http://www.meteoam.it/modules.php?name= ... r&frame=75
Football, basketball, baseball, tennis, golf? No thanks, I fly. Why? Because all that stuff requires one ball only!

Avatar utente
Fabri88
FL 400
FL 400
Messaggi: 4233
Iscritto il: 17 novembre 2007, 14:05
Località: Busto Arsizio (Büsti Grandi) - 4,69 nm HDG 84 from MXP

Re: Inserite qui i vostri METAR

Messaggio da Fabri88 » 21 dicembre 2009, 23:41

Azz, non sapevo dell'esistenza degli Snowtam! Grazie!

LIMC 212220Z VRB02KT 0800 R35R/P1500N R35L/P1500N +SN BKN005 OVC015 M04/M06 Q1010 85493091 35490492 NOSIG

Un'altra cosa:

85 = 35L
35 = 35R

Oppure il contrario?
Immagine
ImmagineImmagine

Avatar utente
Fabri88
FL 400
FL 400
Messaggi: 4233
Iscritto il: 17 novembre 2007, 14:05
Località: Busto Arsizio (Büsti Grandi) - 4,69 nm HDG 84 from MXP

Re: Inserite qui i vostri METAR

Messaggio da Fabri88 » 22 dicembre 2009, 12:44

Se in un metar il vento è 18002KT significa che è un vento di 2KT che va verso Sud oppure viene da Sud?
Immagine
ImmagineImmagine

Avatar utente
AirGek
FL 500
FL 500
Messaggi: 12173
Iscritto il: 7 dicembre 2008, 12:02
Località: 12 o'clock opposite direction

Re: Inserite qui i vostri METAR

Messaggio da AirGek » 22 dicembre 2009, 12:46

Fabri88 ha scritto:Se in un metar il vento è 18002KT significa che è un vento di 2KT che va verso Sud oppure viene da Sud?
Si indica sempre la provenienza del vento rispetto al nord vero.
Football, basketball, baseball, tennis, golf? No thanks, I fly. Why? Because all that stuff requires one ball only!

Avatar utente
Fabri88
FL 400
FL 400
Messaggi: 4233
Iscritto il: 17 novembre 2007, 14:05
Località: Busto Arsizio (Büsti Grandi) - 4,69 nm HDG 84 from MXP

Re: Inserite qui i vostri METAR

Messaggio da Fabri88 » 22 dicembre 2009, 12:57

Quindi 180 è ub vento che arriva da Sud e va verso Nord. Grazie!
Immagine
ImmagineImmagine

Avatar utente
Fabri88
FL 400
FL 400
Messaggi: 4233
Iscritto il: 17 novembre 2007, 14:05
Località: Busto Arsizio (Büsti Grandi) - 4,69 nm HDG 84 from MXP

Re: Inserite qui i vostri METAR

Messaggio da Fabri88 » 8 aprile 2011, 11:45

LIMC 08*0920Z 36007KT 330V090 CAVOK 27/03 Q1015 NOSIG

* Aprile

E me cojoni!

A Busto Arsizio in questo momento 28,3°C!

:mrgreen: :mrgreen: :mrgreen: :bounce: :bounce: :bounce:
Immagine
ImmagineImmagine

Avatar utente
JT8D
Administrator
Administrator
Messaggi: 15880
Iscritto il: 2 agosto 2005, 20:38
Località: Limbiate (MB)
Contatta:

Re: Inserite qui i vostri METAR

Messaggio da JT8D » 8 aprile 2011, 23:18

Sì, decisamente anomala per la stagione in cui siamo questa temperatura. Oggi pomeriggio a Milano Centro si sono sfiorati i 30 gradi.
Alla faccia dell'8 Aprile.... :shock:

Paolo
"La corsa di decollo è una metamorfosi, una quantità di metallo che si trasforma in aeroplano per mezzo dell'aria. Ogni corsa di decollo è la nascita di un aeroplano."

Immagine

Avatar utente
ciccioxx92
FL 500
FL 500
Messaggi: 5988
Iscritto il: 22 luglio 2009, 14:00
Località: 45.055686, 7.655159
Contatta:

Re: Inserite qui i vostri METAR

Messaggio da ciccioxx92 » 8 aprile 2011, 23:25

A Turin, nel mezzo della giornata (da termometri pubblici, non so quanto affidabili siano), veniva registrata la temperatura di 30°C. Strano. Ma non più di tanto! :)
Immagine

"Dai diamanti non nasce niente, dal letame nascono i fiori"

Avatar utente
albert
md80.it Staff
md80.it Staff
Messaggi: 5835
Iscritto il: 9 ottobre 2007, 2:16
Località: Liguria

Re: Inserite qui i vostri METAR

Messaggio da albert » 4 novembre 2011, 12:15

Genova pochi minuti fa.... LIMJ 041050Z 05018KT 9999 -RA SCT007 OVC020 16/13 Q1011 WS R28
nulla di particolare, ma il levante cittadino è coperto da una cella autorigenerante.... :roll: :x


Aggiornamento (ore 12.46) : voli dirottati su Pisa e Torino.
Alberto
MD80 Fan

«Ogni domanda alla quale si possa dare una risposta ragionevole è lecita.» Konrad Lorenz
«Un sogno scaturito da un grande desiderio: la grande voglia di volare e scoprire altri orizzonti verso i quali andare, con la voglia di nuovo. Per me questa è l'avventura.» Angelo D'Arrigo
«Non prendete la vita troppo sul serio, comunque vada non ne uscirete vivi.» Robert Oppenheimer

Avatar utente
Ayrton
B747 Senior First Officer / Instructor
B747 Senior First Officer / Instructor
Messaggi: 3671
Iscritto il: 21 novembre 2007, 21:15
Località: Gni Gni Gni

Re: Inserite qui i vostri METAR

Messaggio da Ayrton » 4 novembre 2011, 13:59

albert ha scritto:Genova pochi minuti fa.... LIMJ 041050Z 05018KT 9999 -RA SCT007 OVC020 16/13 Q1011 WS R28
nulla di particolare, ma il levante cittadino è coperto da una cella autorigenerante.... :roll: :x


Aggiornamento (ore 12.46) : voli dirottati su Pisa e Torino.
brutta situazione in liguria..
Immagine

Avatar utente
sigmet
FL 500
FL 500
Messaggi: 5986
Iscritto il: 23 dicembre 2008, 12:08

Re: Inserite qui i vostri METAR

Messaggio da sigmet » 8 novembre 2011, 17:58

albert ha scritto:Genova pochi minuti fa.... LIMJ 041050Z 05018KT 9999 -RA SCT007 OVC020 16/13 Q1011 WS R28
nulla di particolare, ma il levante cittadino è coperto da una cella autorigenerante.... :roll: :x


Aggiornamento (ore 12.46) : voli dirottati su Pisa e Torino.
La "ciclogenesi" del golfo del leone di calabresiana memoria...(ha tolto il sonno a parecchi miei colleghi... :lol: )
Ci sedemmo dalla parte del torto visto che tutti gli altri posti erano occupati.

Avatar utente
AirGek
FL 500
FL 500
Messaggi: 12173
Iscritto il: 7 dicembre 2008, 12:02
Località: 12 o'clock opposite direction

Re: Inserite qui i vostri METAR

Messaggio da AirGek » 6 gennaio 2012, 15:42

Se non fanno energia eolica oggi... :roll:

LIEE 061415Z 33027G56KT 9999 -RA FEW015CB 09/M01 Q1010 NOSIG
Football, basketball, baseball, tennis, golf? No thanks, I fly. Why? Because all that stuff requires one ball only!

Avatar utente
m.forna
FL 450
FL 450
Messaggi: 4608
Iscritto il: 6 luglio 2010, 1:07

Re: Inserite qui i vostri METAR

Messaggio da m.forna » 6 gennaio 2012, 16:03

AirGek ha scritto:Se non fanno energia eolica oggi... :roll:

LIEE 061415Z 33027G56KT 9999 -RA FEW015CB 09/M01 Q1010 NOSIG
E' tutto il giorno che parlano di venti e tempo di m.. ovunque al telegiornale.
Si è ferito qualche pax in qualche traghetto questa notte.
Ovviamente "E' impressionante il modo in cui gli aerei oscillano in fase da atterraggio!"
Poi han fatto vedere un 320 in atterraggio e han detto che è atterrato con vento a 180 km/h, non mi ricordo l'aeroporto.
Vorresti mandargli una mail o qualcosa di simile con scritto di dire meno cretinate ma le giornaliste poi ti guardano male! :roll: :?
Immagine.jpg
Boh... io da casa mia oggi vedo le alpi. Più CAVOK di così si muore. :mrgreen:

Di vento neanche.. non ce n'è. 8)
Marco

PizzOne
01000 ft
01000 ft
Messaggi: 188
Iscritto il: 5 febbraio 2010, 12:21
Località: CGN

Re: Inserite qui i vostri METAR

Messaggio da PizzOne » 7 gennaio 2012, 8:06

AirGek ha scritto:Se non fanno energia eolica oggi... :roll:

LIEE 061415Z 33027G56KT 9999 -RA FEW015CB 09/M01 Q1010 NOSIG
Immagine :|
You never know until you try

Rispondi